sensor_id;sensor_type;location;lat;lon;timestamp;temperature;humidity
9223;DHT22;7557;51.698;3.942;2023-07-31T00:00:47;19.40;99.90
9223;DHT22;7557;51.698;3.942;2023-07-31T00:03:14;19.40;99.90
9223;DHT22;7557;51.698;3.942;2023-07-31T00:05:41;19.30;99.90
9223;DHT22;7557;51.698;3.942;2023-07-31T00:08:11;19.40;99.90
9223;DHT22;7557;51.698;3.942;2023-07-31T00:10:38;19.40;99.90
9223;DHT22;7557;51.698;3.942;2023-07-31T00:13:05;19.40;99.90
9223;DHT22;7557;51.698;3.942;2023-07-31T00:15:32;19.40;99.90
9223;DHT22;7557;51.698;3.942;2023-07-31T00:18:00;19.40;99.90
9223;DHT22;7557;51.698;3.942;2023-07-31T00:20:28;19.40;99.90
9223;DHT22;7557;51.698;3.942;2023-07-31T00:22:55;19.40;99.90
9223;DHT22;7557;51.698;3.942;2023-07-31T00:25:24;19.30;99.90
9223;DHT22;7557;51.698;3.942;2023-07-31T00:27:51;19.30;99.90
9223;DHT22;7557;51.698;3.942;2023-07-31T00:30:18;19.30;99.90
9223;DHT22;7557;51.698;3.942;2023-07-31T00:32:45;19.30;99.90
9223;DHT22;7557;51.698;3.942;2023-07-31T00:35:12;19.30;99.90
9223;DHT22;7557;51.698;3.942;2023-07-31T00:37:39;19.30;99.90
9223;DHT22;7557;51.698;3.942;2023-07-31T00:40:08;19.30;99.90
9223;DHT22;7557;51.698;3.942;2023-07-31T00:42:36;19.30;99.90
9223;DHT22;7557;51.698;3.942;2023-07-31T00:45:04;19.30;99.90
9223;DHT22;7557;51.698;3.942;2023-07-31T00:47:32;19.30;99.90
9223;DHT22;7557;51.698;3.942;2023-07-31T00:49:59;19.30;99.90
9223;DHT22;7557;51.698;3.942;2023-07-31T00:52:26;19.30;99.90
9223;DHT22;7557;51.698;3.942;2023-07-31T00:54:53;19.30;99.90
9223;DHT22;7557;51.698;3.942;2023-07-31T00:57:21;19.30;99.90
9223;DHT22;7557;51.698;3.942;2023-07-31T00:59:49;19.30;99.90
9223;DHT22;7557;51.698;3.942;2023-07-31T01:02:17;19.30;99.90
9223;DHT22;7557;51.698;3.942;2023-07-31T01:04:45;19.30;99.90
9223;DHT22;7557;51.698;3.942;2023-07-31T01:07:19;19.30;99.90
9223;DHT22;7557;51.698;3.942;2023-07-31T01:09:56;19.30;99.90
9223;DHT22;7557;51.698;3.942;2023-07-31T01:12:26;19.30;99.90
9223;DHT22;7557;51.698;3.942;2023-07-31T01:15:04;19.30;99.90
9223;DHT22;7557;51.698;3.942;2023-07-31T01:17:32;19.30;99.90
9223;DHT22;7557;51.698;3.942;2023-07-31T01:20:02;19.30;99.90
9223;DHT22;7557;51.698;3.942;2023-07-31T01:22:42;19.30;99.90
9223;DHT22;7557;51.698;3.942;2023-07-31T01:25:22;19.30;99.90
9223;DHT22;7557;51.698;3.942;2023-07-31T01:28:00;19.30;99.90
9223;DHT22;7557;51.698;3.942;2023-07-31T01:30:33;19.30;99.90
9223;DHT22;7557;51.698;3.942;2023-07-31T01:33:01;19.30;99.90
9223;DHT22;7557;51.698;3.942;2023-07-31T01:35:32;19.30;99.90
9223;DHT22;7557;51.698;3.942;2023-07-31T01:38:00;19.30;99.90
9223;DHT22;7557;51.698;3.942;2023-07-31T01:40:27;19.30;99.90
9223;DHT22;7557;51.698;3.942;2023-07-31T01:42:55;19.30;99.90
9223;DHT22;7557;51.698;3.942;2023-07-31T01:45:23;19.20;99.90
9223;DHT22;7557;51.698;3.942;2023-07-31T01:47:50;19.20;99.90
9223;DHT22;7557;51.698;3.942;2023-07-31T01:50:17;19.20;99.90
9223;DHT22;7557;51.698;3.942;2023-07-31T01:52:44;19.10;99.90
9223;DHT22;7557;51.698;3.942;2023-07-31T01:55:11;19.20;99.90
9223;DHT22;7557;51.698;3.942;2023-07-31T01:57:38;19.20;99.90
9223;DHT22;7557;51.698;3.942;2023-07-31T02:00:08;19.20;99.90
9223;DHT22;7557;51.698;3.942;2023-07-31T02:02:35;19.20;99.90
9223;DHT22;7557;51.698;3.942;2023-07-31T02:05:03;19.20;99.90
9223;DHT22;7557;51.698;3.942;2023-07-31T02:07:30;19.20;99.90
9223;DHT22;7557;51.698;3.942;2023-07-31T02:09:57;19.20;99.90
9223;DHT22;7557;51.698;3.942;2023-07-31T02:12:24;19.20;99.90
9223;DHT22;7557;51.698;3.942;2023-07-31T02:14:51;19.20;99.90
9223;DHT22;7557;51.698;3.942;2023-07-31T02:17:20;19.10;99.90
9223;DHT22;7557;51.698;3.942;2023-07-31T02:19:47;19.10;99.90
9223;DHT22;7557;51.698;3.942;2023-07-31T02:22:14;19.10;99.90
9223;DHT22;7557;51.698;3.942;2023-07-31T02:24:41;19.10;99.90
9223;DHT22;7557;51.698;3.942;2023-07-31T02:27:08;19.10;99.90
9223;DHT22;7557;51.698;3.942;2023-07-31T02:29:36;19.10;99.90
9223;DHT22;7557;51.698;3.942;2023-07-31T02:32:03;19.10;99.90
9223;DHT22;7557;51.698;3.942;2023-07-31T02:34:32;19.10;99.90
9223;DHT22;7557;51.698;3.942;2023-07-31T02:36:59;19.10;99.90
9223;DHT22;7557;51.698;3.942;2023-07-31T02:39:26;19.10;99.90
9223;DHT22;7557;51.698;3.942;2023-07-31T02:41:53;19.10;99.90
9223;DHT22;7557;51.698;3.942;2023-07-31T02:44:20;19.00;99.90
9223;DHT22;7557;51.698;3.942;2023-07-31T02:46:47;18.90;99.90
9223;DHT22;7557;51.698;3.942;2023-07-31T02:49:15;18.90;99.90
9223;DHT22;7557;51.698;3.942;2023-07-31T02:51:43;18.90;99.90
9223;DHT22;7557;51.698;3.942;2023-07-31T02:54:10;18.80;99.90
9223;DHT22;7557;51.698;3.942;2023-07-31T02:56:39;18.80;99.90
9223;DHT22;7557;51.698;3.942;2023-07-31T02:59:07;18.80;99.90
9223;DHT22;7557;51.698;3.942;2023-07-31T03:01:34;18.80;99.90
9223;DHT22;7557;51.698;3.942;2023-07-31T03:04:01;18.80;99.90
9223;DHT22;7557;51.698;3.942;2023-07-31T03:06:28;18.80;99.90
9223;DHT22;7557;51.698;3.942;2023-07-31T03:08:56;18.80;99.90
9223;DHT22;7557;51.698;3.942;2023-07-31T03:11:24;18.70;99.90
9223;DHT22;7557;51.698;3.942;2023-07-31T03:13:51;18.70;99.90
9223;DHT22;7557;51.698;3.942;2023-07-31T03:16:18;18.60;99.90
9223;DHT22;7557;51.698;3.942;2023-07-31T03:18:45;18.50;99.90
9223;DHT22;7557;51.698;3.942;2023-07-31T03:21:12;18.50;99.90
9223;DHT22;7557;51.698;3.942;2023-07-31T03:23:40;18.40;99.90
9223;DHT22;7557;51.698;3.942;2023-07-31T03:26:10;18.40;99.90
9223;DHT22;7557;51.698;3.942;2023-07-31T03:28:37;18.30;99.90
9223;DHT22;7557;51.698;3.942;2023-07-31T03:31:04;18.20;99.90
9223;DHT22;7557;51.698;3.942;2023-07-31T03:33:34;18.20;99.90
9223;DHT22;7557;51.698;3.942;2023-07-31T03:36:01;18.20;99.90
9223;DHT22;7557;51.698;3.942;2023-07-31T03:38:29;18.10;99.90
9223;DHT22;7557;51.698;3.942;2023-07-31T03:40:56;18.10;99.90
9223;DHT22;7557;51.698;3.942;2023-07-31T03:43:26;18.10;99.90
9223;DHT22;7557;51.698;3.942;2023-07-31T03:45:53;18.00;99.90
9223;DHT22;7557;51.698;3.942;2023-07-31T03:48:21;18.00;99.90
9223;DHT22;7557;51.698;3.942;2023-07-31T03:50:48;18.00;99.90
9223;DHT22;7557;51.698;3.942;2023-07-31T03:53:16;18.00;99.90
9223;DHT22;7557;51.698;3.942;2023-07-31T03:55:43;18.00;99.90
9223;DHT22;7557;51.698;3.942;2023-07-31T03:58:10;18.00;99.90
9223;DHT22;7557;51.698;3.942;2023-07-31T04:00:40;17.90;99.90
9223;DHT22;7557;51.698;3.942;2023-07-31T04:03:07;17.90;99.90
9223;DHT22;7557;51.698;3.942;2023-07-31T04:05:38;17.90;99.90
9223;DHT22;7557;51.698;3.942;2023-07-31T04:08:06;17.90;99.90
9223;DHT22;7557;51.698;3.942;2023-07-31T04:10:34;17.90;99.90
9223;DHT22;7557;51.698;3.942;2023-07-31T04:13:04;17.90;99.90
9223;DHT22;7557;51.698;3.942;2023-07-31T04:15:31;17.90;99.90
9223;DHT22;7557;51.698;3.942;2023-07-31T04:18:03;17.80;99.90
9223;DHT22;7557;51.698;3.942;2023-07-31T04:20:30;17.70;99.90
9223;DHT22;7557;51.698;3.942;2023-07-31T04:22:58;17.70;99.90
9223;DHT22;7557;51.698;3.942;2023-07-31T04:25:25;17.70;99.90
9223;DHT22;7557;51.698;3.942;2023-07-31T04:27:52;17.80;99.90
9223;DHT22;7557;51.698;3.942;2023-07-31T04:30:20;17.70;99.90
9223;DHT22;7557;51.698;3.942;2023-07-31T04:32:47;17.80;99.90
9223;DHT22;7557;51.698;3.942;2023-07-31T04:35:16;17.80;99.90
9223;DHT22;7557;51.698;3.942;2023-07-31T04:37:44;17.80;99.90
9223;DHT22;7557;51.698;3.942;2023-07-31T04:40:14;17.80;99.90
9223;DHT22;7557;51.698;3.942;2023-07-31T04:42:41;17.80;99.90
9223;DHT22;7557;51.698;3.942;2023-07-31T04:45:09;17.70;99.90
9223;DHT22;7557;51.698;3.942;2023-07-31T04:47:37;17.80;99.90
9223;DHT22;7557;51.698;3.942;2023-07-31T04:50:05;17.80;99.90
9223;DHT22;7557;51.698;3.942;2023-07-31T04:52:34;17.80;99.90
9223;DHT22;7557;51.698;3.942;2023-07-31T04:55:02;17.90;99.90
9223;DHT22;7557;51.698;3.942;2023-07-31T04:57:30;17.90;99.90
9223;DHT22;7557;51.698;3.942;2023-07-31T04:59:57;17.90;99.90
9223;DHT22;7557;51.698;3.942;2023-07-31T05:02:24;17.90;99.90
9223;DHT22;7557;51.698;3.942;2023-07-31T05:04:52;17.90;99.90
9223;DHT22;7557;51.698;3.942;2023-07-31T05:07:19;17.90;99.90
9223;DHT22;7557;51.698;3.942;2023-07-31T05:09:48;17.90;99.90
9223;DHT22;7557;51.698;3.942;2023-07-31T05:12:15;17.90;99.90
9223;DHT22;7557;51.698;3.942;2023-07-31T05:14:43;17.90;99.90
9223;DHT22;7557;51.698;3.942;2023-07-31T05:17:11;17.80;99.90
9223;DHT22;7557;51.698;3.942;2023-07-31T05:19:38;17.90;99.90
9223;DHT22;7557;51.698;3.942;2023-07-31T05:22:06;17.90;99.90
9223;DHT22;7557;51.698;3.942;2023-07-31T05:24:33;17.90;99.90
9223;DHT22;7557;51.698;3.942;2023-07-31T05:27:02;17.90;99.90
9223;DHT22;7557;51.698;3.942;2023-07-31T05:29:30;17.90;99.90
9223;DHT22;7557;51.698;3.942;2023-07-31T05:31:57;17.90;99.90
9223;DHT22;7557;51.698;3.942;2023-07-31T05:34:25;17.90;99.90
9223;DHT22;7557;51.698;3.942;2023-07-31T05:36:52;18.00;99.90
9223;DHT22;7557;51.698;3.942;2023-07-31T05:39:19;18.00;99.90
9223;DHT22;7557;51.698;3.942;2023-07-31T05:41:47;18.00;99.90
9223;DHT22;7557;51.698;3.942;2023-07-31T05:44:16;18.00;99.90
9223;DHT22;7557;51.698;3.942;2023-07-31T05:46:46;18.00;99.90
9223;DHT22;7557;51.698;3.942;2023-07-31T05:49:13;18.00;99.90
9223;DHT22;7557;51.698;3.942;2023-07-31T05:51:41;18.00;99.90
9223;DHT22;7557;51.698;3.942;2023-07-31T05:54:08;18.00;99.90
9223;DHT22;7557;51.698;3.942;2023-07-31T05:56:35;18.00;99.90
9223;DHT22;7557;51.698;3.942;2023-07-31T05:59:02;18.00;99.90
9223;DHT22;7557;51.698;3.942;2023-07-31T06:01:32;18.10;99.90
9223;DHT22;7557;51.698;3.942;2023-07-31T06:03:59;18.10;99.90
9223;DHT22;7557;51.698;3.942;2023-07-31T06:06:27;18.10;99.90
9223;DHT22;7557;51.698;3.942;2023-07-31T06:08:54;18.10;99.90
9223;DHT22;7557;51.698;3.942;2023-07-31T06:11:22;18.20;99.90
9223;DHT22;7557;51.698;3.942;2023-07-31T06:13:50;18.20;99.90
9223;DHT22;7557;51.698;3.942;2023-07-31T06:16:17;18.20;99.90
9223;DHT22;7557;51.698;3.942;2023-07-31T06:18:46;18.30;99.90
9223;DHT22;7557;51.698;3.942;2023-07-31T06:21:14;18.30;99.90
9223;DHT22;7557;51.698;3.942;2023-07-31T06:23:41;18.30;99.90
9223;DHT22;7557;51.698;3.942;2023-07-31T06:26:08;18.30;99.90
9223;DHT22;7557;51.698;3.942;2023-07-31T06:28:36;18.30;99.90
9223;DHT22;7557;51.698;3.942;2023-07-31T06:31:03;18.30;99.90
9223;DHT22;7557;51.698;3.942;2023-07-31T06:33:30;18.30;99.90
9223;DHT22;7557;51.698;3.942;2023-07-31T06:35:59;18.30;99.90
9223;DHT22;7557;51.698;3.942;2023-07-31T06:38:27;18.30;99.90
9223;DHT22;7557;51.698;3.942;2023-07-31T06:40:54;18.30;99.90
9223;DHT22;7557;51.698;3.942;2023-07-31T06:43:22;18.30;99.90
9223;DHT22;7557;51.698;3.942;2023-07-31T06:45:49;18.40;99.90
9223;DHT22;7557;51.698;3.942;2023-07-31T06:48:17;18.40;99.90
9223;DHT22;7557;51.698;3.942;2023-07-31T06:50:44;18.40;99.90
9223;DHT22;7557;51.698;3.942;2023-07-31T06:53:13;18.40;99.90
9223;DHT22;7557;51.698;3.942;2023-07-31T06:55:40;18.40;99.90
9223;DHT22;7557;51.698;3.942;2023-07-31T06:58:08;18.40;99.90
9223;DHT22;7557;51.698;3.942;2023-07-31T07:00:35;18.40;99.90
9223;DHT22;7557;51.698;3.942;2023-07-31T07:03:02;18.50;99.90
9223;DHT22;7557;51.698;3.942;2023-07-31T07:05:30;18.50;99.90
9223;DHT22;7557;51.698;3.942;2023-07-31T07:07:57;18.50;99.90
9223;DHT22;7557;51.698;3.942;2023-07-31T07:10:26;18.50;99.90
9223;DHT22;7557;51.698;3.942;2023-07-31T07:12:53;18.50;99.90
9223;DHT22;7557;51.698;3.942;2023-07-31T07:15:21;18.50;99.90
9223;DHT22;7557;51.698;3.942;2023-07-31T07:17:49;18.50;99.90
9223;DHT22;7557;51.698;3.942;2023-07-31T07:20:16;18.50;99.90
9223;DHT22;7557;51.698;3.942;2023-07-31T07:22:46;18.60;99.90
9223;DHT22;7557;51.698;3.942;2023-07-31T07:25:13;18.60;99.90
9223;DHT22;7557;51.698;3.942;2023-07-31T07:27:42;18.70;99.90
9223;DHT22;7557;51.698;3.942;2023-07-31T07:30:10;18.70;99.90
9223;DHT22;7557;51.698;3.942;2023-07-31T07:32:37;18.70;99.90
9223;DHT22;7557;51.698;3.942;2023-07-31T07:35:05;18.70;99.90
9223;DHT22;7557;51.698;3.942;2023-07-31T07:37:33;18.70;99.90
9223;DHT22;7557;51.698;3.942;2023-07-31T07:40:01;18.70;99.90
9223;DHT22;7557;51.698;3.942;2023-07-31T07:42:28;18.70;99.90
9223;DHT22;7557;51.698;3.942;2023-07-31T07:44:57;18.80;99.90
9223;DHT22;7557;51.698;3.942;2023-07-31T07:47:24;18.80;99.90
9223;DHT22;7557;51.698;3.942;2023-07-31T07:49:51;18.80;99.90
9223;DHT22;7557;51.698;3.942;2023-07-31T07:52:19;18.80;99.90
9223;DHT22;7557;51.698;3.942;2023-07-31T07:54:46;18.90;99.90
9223;DHT22;7557;51.698;3.942;2023-07-31T07:57:13;18.90;99.90
9223;DHT22;7557;51.698;3.942;2023-07-31T07:59:41;19.00;99.90
9223;DHT22;7557;51.698;3.942;2023-07-31T08:02:10;19.00;99.90
9223;DHT22;7557;51.698;3.942;2023-07-31T08:04:37;19.00;99.90
9223;DHT22;7557;51.698;3.942;2023-07-31T08:07:05;19.00;99.90
9223;DHT22;7557;51.698;3.942;2023-07-31T08:09:32;19.00;99.90
9223;DHT22;7557;51.698;3.942;2023-07-31T08:11:59;19.10;99.90
9223;DHT22;7557;51.698;3.942;2023-07-31T08:14:29;19.10;99.90
9223;DHT22;7557;51.698;3.942;2023-07-31T08:16:56;19.10;99.90
9223;DHT22;7557;51.698;3.942;2023-07-31T08:19:26;19.10;99.90
9223;DHT22;7557;51.698;3.942;2023-07-31T08:21:53;19.00;99.90
9223;DHT22;7557;51.698;3.942;2023-07-31T08:24:21;19.10;99.90
9223;DHT22;7557;51.698;3.942;2023-07-31T08:26:48;19.20;99.90
9223;DHT22;7557;51.698;3.942;2023-07-31T08:29:15;19.20;99.90
9223;DHT22;7557;51.698;3.942;2023-07-31T08:31:43;19.20;99.90
9223;DHT22;7557;51.698;3.942;2023-07-31T08:34:10;19.30;99.90
9223;DHT22;7557;51.698;3.942;2023-07-31T08:36:39;19.30;99.90
9223;DHT22;7557;51.698;3.942;2023-07-31T08:39:06;19.30;99.90
9223;DHT22;7557;51.698;3.942;2023-07-31T08:41:37;19.40;99.90
9223;DHT22;7557;51.698;3.942;2023-07-31T08:44:07;19.50;99.90
9223;DHT22;7557;51.698;3.942;2023-07-31T08:46:35;19.50;99.90
9223;DHT22;7557;51.698;3.942;2023-07-31T08:49:04;19.60;99.90
9223;DHT22;7557;51.698;3.942;2023-07-31T08:51:34;19.60;99.90
9223;DHT22;7557;51.698;3.942;2023-07-31T08:54:03;19.60;99.90
9223;DHT22;7557;51.698;3.942;2023-07-31T08:56:32;19.60;99.90
9223;DHT22;7557;51.698;3.942;2023-07-31T08:59:02;19.60;99.90
9223;DHT22;7557;51.698;3.942;2023-07-31T09:01:30;19.60;99.90
9223;DHT22;7557;51.698;3.942;2023-07-31T09:04:01;19.60;99.90
9223;DHT22;7557;51.698;3.942;2023-07-31T09:06:32;19.60;99.90
9223;DHT22;7557;51.698;3.942;2023-07-31T09:09:00;19.60;99.90
9223;DHT22;7557;51.698;3.942;2023-07-31T09:11:30;19.60;99.90
9223;DHT22;7557;51.698;3.942;2023-07-31T09:13:58;19.60;99.90
9223;DHT22;7557;51.698;3.942;2023-07-31T09:16:28;19.60;99.90
9223;DHT22;7557;51.698;3.942;2023-07-31T09:18:58;19.60;99.90
9223;DHT22;7557;51.698;3.942;2023-07-31T09:21:27;19.50;99.90
9223;DHT22;7557;51.698;3.942;2023-07-31T09:23:55;19.50;99.90
9223;DHT22;7557;51.698;3.942;2023-07-31T09:26:31;19.60;99.90
9223;DHT22;7557;51.698;3.942;2023-07-31T09:28:59;19.60;99.90
9223;DHT22;7557;51.698;3.942;2023-07-31T09:31:41;19.60;99.90
9223;DHT22;7557;51.698;3.942;2023-07-31T09:34:09;19.60;99.90
9223;DHT22;7557;51.698;3.942;2023-07-31T09:36:43;19.70;99.90
9223;DHT22;7557;51.698;3.942;2023-07-31T09:39:11;19.70;99.90
9223;DHT22;7557;51.698;3.942;2023-07-31T09:41:43;19.70;99.90
9223;DHT22;7557;51.698;3.942;2023-07-31T09:44:11;19.80;99.90
9223;DHT22;7557;51.698;3.942;2023-07-31T09:46:38;19.80;99.90
9223;DHT22;7557;51.698;3.942;2023-07-31T09:49:07;19.90;99.90
9223;DHT22;7557;51.698;3.942;2023-07-31T09:51:36;19.80;99.90
9223;DHT22;7557;51.698;3.942;2023-07-31T09:54:09;19.90;99.90
9223;DHT22;7557;51.698;3.942;2023-07-31T09:56:43;19.90;99.90
9223;DHT22;7557;51.698;3.942;2023-07-31T09:59:14;19.90;99.90
9223;DHT22;7557;51.698;3.942;2023-07-31T10:01:42;20.00;99.90
9223;DHT22;7557;51.698;3.942;2023-07-31T10:04:10;20.00;99.90
9223;DHT22;7557;51.698;3.942;2023-07-31T10:06:38;20.00;99.90
9223;DHT22;7557;51.698;3.942;2023-07-31T10:09:07;20.10;99.90
9223;DHT22;7557;51.698;3.942;2023-07-31T10:11:38;20.10;99.90
9223;DHT22;7557;51.698;3.942;2023-07-31T10:14:09;20.20;99.90
9223;DHT22;7557;51.698;3.942;2023-07-31T10:16:38;20.20;99.90
9223;DHT22;7557;51.698;3.942;2023-07-31T10:19:07;20.20;99.90
9223;DHT22;7557;51.698;3.942;2023-07-31T10:21:36;20.30;99.90
9223;DHT22;7557;51.698;3.942;2023-07-31T10:24:05;20.30;99.90
9223;DHT22;7557;51.698;3.942;2023-07-31T10:26:32;20.30;99.90
9223;DHT22;7557;51.698;3.942;2023-07-31T10:29:00;20.30;99.90
9223;DHT22;7557;51.698;3.942;2023-07-31T10:31:29;20.20;99.90
9223;DHT22;7557;51.698;3.942;2023-07-31T10:33:57;20.20;99.90
9223;DHT22;7557;51.698;3.942;2023-07-31T10:36:26;20.20;99.90
9223;DHT22;7557;51.698;3.942;2023-07-31T10:38:55;20.20;99.90
9223;DHT22;7557;51.698;3.942;2023-07-31T10:41:29;20.20;99.90
9223;DHT22;7557;51.698;3.942;2023-07-31T10:43:58;20.30;99.90
9223;DHT22;7557;51.698;3.942;2023-07-31T10:46:29;20.30;99.90
9223;DHT22;7557;51.698;3.942;2023-07-31T10:49:00;20.30;99.90
9223;DHT22;7557;51.698;3.942;2023-07-31T10:51:33;20.30;99.90
9223;DHT22;7557;51.698;3.942;2023-07-31T10:54:11;20.40;99.90
9223;DHT22;7557;51.698;3.942;2023-07-31T10:56:40;20.40;99.90
9223;DHT22;7557;51.698;3.942;2023-07-31T10:59:07;20.40;99.90
9223;DHT22;7557;51.698;3.942;2023-07-31T11:01:52;20.50;99.90
9223;DHT22;7557;51.698;3.942;2023-07-31T11:04:23;20.50;99.90
9223;DHT22;7557;51.698;3.942;2023-07-31T11:06:58;20.40;99.90
9223;DHT22;7557;51.698;3.942;2023-07-31T11:09:28;20.40;99.90
9223;DHT22;7557;51.698;3.942;2023-07-31T11:11:57;20.40;99.90
9223;DHT22;7557;51.698;3.942;2023-07-31T11:14:25;20.40;99.90
9223;DHT22;7557;51.698;3.942;2023-07-31T11:16:55;20.40;99.90
9223;DHT22;7557;51.698;3.942;2023-07-31T11:19:22;20.50;99.90
9223;DHT22;7557;51.698;3.942;2023-07-31T11:21:51;20.50;99.90
9223;DHT22;7557;51.698;3.942;2023-07-31T11:24:20;20.50;99.90
9223;DHT22;7557;51.698;3.942;2023-07-31T11:26:50;20.50;99.90
9223;DHT22;7557;51.698;3.942;2023-07-31T11:29:18;20.40;99.90
9223;DHT22;7557;51.698;3.942;2023-07-31T11:31:46;20.50;99.90
9223;DHT22;7557;51.698;3.942;2023-07-31T11:34:16;20.50;99.90
9223;DHT22;7557;51.698;3.942;2023-07-31T11:36:55;20.50;99.90
9223;DHT22;7557;51.698;3.942;2023-07-31T11:39:22;20.50;99.90
9223;DHT22;7557;51.698;3.942;2023-07-31T11:41:50;20.50;99.90
9223;DHT22;7557;51.698;3.942;2023-07-31T11:44:17;20.50;99.90
9223;DHT22;7557;51.698;3.942;2023-07-31T11:46:44;20.50;99.90
9223;DHT22;7557;51.698;3.942;2023-07-31T11:49:12;20.50;99.90
9223;DHT22;7557;51.698;3.942;2023-07-31T11:51:41;20.50;99.90
9223;DHT22;7557;51.698;3.942;2023-07-31T11:54:08;20.40;99.90
9223;DHT22;7557;51.698;3.942;2023-07-31T11:56:37;20.40;99.90
9223;DHT22;7557;51.698;3.942;2023-07-31T11:59:05;20.40;99.90
9223;DHT22;7557;51.698;3.942;2023-07-31T12:01:34;20.40;99.90
9223;DHT22;7557;51.698;3.942;2023-07-31T12:04:01;20.50;99.90
9223;DHT22;7557;51.698;3.942;2023-07-31T12:06:35;20.50;99.90
9223;DHT22;7557;51.698;3.942;2023-07-31T12:09:05;20.60;99.90
9223;DHT22;7557;51.698;3.942;2023-07-31T12:11:43;20.60;99.90
9223;DHT22;7557;51.698;3.942;2023-07-31T12:14:19;20.70;99.90
9223;DHT22;7557;51.698;3.942;2023-07-31T12:16:47;20.70;99.90
9223;DHT22;7557;51.698;3.942;2023-07-31T12:19:14;20.80;99.90
9223;DHT22;7557;51.698;3.942;2023-07-31T12:21:42;20.80;99.90
9223;DHT22;7557;51.698;3.942;2023-07-31T12:24:11;20.90;99.90
9223;DHT22;7557;51.698;3.942;2023-07-31T12:26:39;20.90;99.90
9223;DHT22;7557;51.698;3.942;2023-07-31T12:29:07;20.80;99.90
9223;DHT22;7557;51.698;3.942;2023-07-31T12:31:34;20.70;99.90
9223;DHT22;7557;51.698;3.942;2023-07-31T12:34:02;20.60;99.90
9223;DHT22;7557;51.698;3.942;2023-07-31T12:36:32;20.50;99.90
9223;DHT22;7557;51.698;3.942;2023-07-31T12:39:02;20.50;99.90
9223;DHT22;7557;51.698;3.942;2023-07-31T12:41:32;20.50;99.90
9223;DHT22;7557;51.698;3.942;2023-07-31T12:43:59;20.50;99.90
9223;DHT22;7557;51.698;3.942;2023-07-31T12:46:27;20.60;99.90
9223;DHT22;7557;51.698;3.942;2023-07-31T12:48:54;20.60;99.90
9223;DHT22;7557;51.698;3.942;2023-07-31T12:51:21;20.70;99.90
9223;DHT22;7557;51.698;3.942;2023-07-31T12:53:49;20.70;99.90
9223;DHT22;7557;51.698;3.942;2023-07-31T12:56:16;20.80;99.90
9223;DHT22;7557;51.698;3.942;2023-07-31T12:58:45;20.80;99.90
9223;DHT22;7557;51.698;3.942;2023-07-31T13:01:13;20.80;99.90
9223;DHT22;7557;51.698;3.942;2023-07-31T13:03:40;20.80;99.90
9223;DHT22;7557;51.698;3.942;2023-07-31T13:06:08;20.70;99.90
9223;DHT22;7557;51.698;3.942;2023-07-31T13:08:35;20.70;99.90
9223;DHT22;7557;51.698;3.942;2023-07-31T13:11:03;20.70;99.90
9223;DHT22;7557;51.698;3.942;2023-07-31T13:13:31;20.70;99.90
9223;DHT22;7557;51.698;3.942;2023-07-31T13:16:00;20.70;99.90
9223;DHT22;7557;51.698;3.942;2023-07-31T13:18:27;20.70;99.90
9223;DHT22;7557;51.698;3.942;2023-07-31T13:20:55;20.70;99.90
9223;DHT22;7557;51.698;3.942;2023-07-31T13:23:22;20.60;99.90
9223;DHT22;7557;51.698;3.942;2023-07-31T13:25:50;20.50;99.90
9223;DHT22;7557;51.698;3.942;2023-07-31T13:28:20;20.50;99.90
9223;DHT22;7557;51.698;3.942;2023-07-31T13:30:47;20.60;99.90
9223;DHT22;7557;51.698;3.942;2023-07-31T13:33:16;20.60;99.90
9223;DHT22;7557;51.698;3.942;2023-07-31T13:35:43;20.50;99.90
9223;DHT22;7557;51.698;3.942;2023-07-31T13:38:10;20.40;99.90
9223;DHT22;7557;51.698;3.942;2023-07-31T13:40:38;20.40;99.90
9223;DHT22;7557;51.698;3.942;2023-07-31T13:43:05;20.40;99.90
9223;DHT22;7557;51.698;3.942;2023-07-31T13:45:33;20.40;99.90
9223;DHT22;7557;51.698;3.942;2023-07-31T13:48:01;20.40;99.90
9223;DHT22;7557;51.698;3.942;2023-07-31T13:50:29;20.40;99.90
9223;DHT22;7557;51.698;3.942;2023-07-31T13:52:57;20.50;99.90
9223;DHT22;7557;51.698;3.942;2023-07-31T13:55:24;20.50;99.90
9223;DHT22;7557;51.698;3.942;2023-07-31T13:57:51;20.50;99.90
9223;DHT22;7557;51.698;3.942;2023-07-31T14:00:19;20.50;99.90
9223;DHT22;7557;51.698;3.942;2023-07-31T14:02:46;20.60;99.90
9223;DHT22;7557;51.698;3.942;2023-07-31T14:05:14;20.60;99.90
9223;DHT22;7557;51.698;3.942;2023-07-31T14:07:43;20.60;99.90
9223;DHT22;7557;51.698;3.942;2023-07-31T14:10:10;20.60;99.90
9223;DHT22;7557;51.698;3.942;2023-07-31T14:12:37;20.50;99.90
9223;DHT22;7557;51.698;3.942;2023-07-31T14:15:06;20.50;99.90
9223;DHT22;7557;51.698;3.942;2023-07-31T14:17:33;20.40;99.90
9223;DHT22;7557;51.698;3.942;2023-07-31T14:20:01;20.30;99.90
9223;DHT22;7557;51.698;3.942;2023-07-31T14:22:29;20.30;99.90
9223;DHT22;7557;51.698;3.942;2023-07-31T14:24:58;20.20;99.90
9223;DHT22;7557;51.698;3.942;2023-07-31T14:27:25;20.20;99.90
9223;DHT22;7557;51.698;3.942;2023-07-31T14:29:53;20.20;99.90
9223;DHT22;7557;51.698;3.942;2023-07-31T14:32:20;20.10;99.90
9223;DHT22;7557;51.698;3.942;2023-07-31T14:34:49;20.20;99.90
9223;DHT22;7557;51.698;3.942;2023-07-31T14:37:16;20.10;99.90
9223;DHT22;7557;51.698;3.942;2023-07-31T14:39:44;20.10;99.90
9223;DHT22;7557;51.698;3.942;2023-07-31T14:42:12;20.10;99.90
9223;DHT22;7557;51.698;3.942;2023-07-31T14:44:40;20.10;99.90
9223;DHT22;7557;51.698;3.942;2023-07-31T14:47:07;20.10;99.90
9223;DHT22;7557;51.698;3.942;2023-07-31T14:49:34;20.00;99.90
9223;DHT22;7557;51.698;3.942;2023-07-31T14:52:02;20.00;99.90
9223;DHT22;7557;51.698;3.942;2023-07-31T14:54:29;20.00;99.90
9223;DHT22;7557;51.698;3.942;2023-07-31T14:56:58;20.00;99.90
9223;DHT22;7557;51.698;3.942;2023-07-31T14:59:28;20.00;99.90
9223;DHT22;7557;51.698;3.942;2023-07-31T15:01:56;20.00;99.90
9223;DHT22;7557;51.698;3.942;2023-07-31T15:04:23;20.00;99.90
9223;DHT22;7557;51.698;3.942;2023-07-31T15:06:51;20.00;99.90
9223;DHT22;7557;51.698;3.942;2023-07-31T15:09:18;20.00;99.90
9223;DHT22;7557;51.698;3.942;2023-07-31T15:11:46;20.00;99.90
9223;DHT22;7557;51.698;3.942;2023-07-31T15:14:14;20.00;99.90
9223;DHT22;7557;51.698;3.942;2023-07-31T15:16:43;20.00;99.90
9223;DHT22;7557;51.698;3.942;2023-07-31T15:19:11;20.00;99.90
9223;DHT22;7557;51.698;3.942;2023-07-31T15:21:38;19.90;99.90
9223;DHT22;7557;51.698;3.942;2023-07-31T15:24:06;19.90;99.90
9223;DHT22;7557;51.698;3.942;2023-07-31T15:26:33;20.00;99.90
9223;DHT22;7557;51.698;3.942;2023-07-31T15:29:03;20.00;99.90
9223;DHT22;7557;51.698;3.942;2023-07-31T15:31:34;20.00;99.90
9223;DHT22;7557;51.698;3.942;2023-07-31T15:34:03;20.10;99.90
9223;DHT22;7557;51.698;3.942;2023-07-31T15:36:31;20.10;99.90
9223;DHT22;7557;51.698;3.942;2023-07-31T15:38:58;20.10;99.90
9223;DHT22;7557;51.698;3.942;2023-07-31T15:41:26;20.10;99.90
9223;DHT22;7557;51.698;3.942;2023-07-31T15:43:55;20.20;99.90
9223;DHT22;7557;51.698;3.942;2023-07-31T15:46:22;20.30;99.90
9223;DHT22;7557;51.698;3.942;2023-07-31T15:48:50;20.30;99.90
9223;DHT22;7557;51.698;3.942;2023-07-31T15:51:20;20.30;99.90
9223;DHT22;7557;51.698;3.942;2023-07-31T15:53:48;20.30;99.90
9223;DHT22;7557;51.698;3.942;2023-07-31T15:56:16;20.30;99.90
9223;DHT22;7557;51.698;3.942;2023-07-31T15:58:43;20.30;99.90
9223;DHT22;7557;51.698;3.942;2023-07-31T16:01:11;20.30;99.90
9223;DHT22;7557;51.698;3.942;2023-07-31T16:03:38;20.30;99.90
9223;DHT22;7557;51.698;3.942;2023-07-31T16:06:05;20.30;99.90
9223;DHT22;7557;51.698;3.942;2023-07-31T16:08:34;20.30;99.90